Huvudsida
METAR-TAF:

METAR-TAF

Flygplatser :

Marsa Alams internationella flygplats

Marsa Alam, Egypten

latitud: 25-33-25N, longitud: 34-35-01E, höjd: 77 m

Aktuellt väderrapport

Denna rapport gjordes för 57 minuter sedan, klockan 18:00 UTC
Vind 13 kt från nord/nordväst
Temperatur 31°C
Fuktighet 46%
Tryck 1008 hPa
Sikt 10 km eller mer
Inga moln under 1 500 m eller inga cumulonimbus

METAR: HEMA 201800Z 33013KT CAVOK 31/18 Q1008 NOSIG

Tid: 20:57 (18:57 UTC)

Väderprognos

Denna rapport gjordes för 1 timme och 57 minuter sedan, klockan 17:00 UTC
Prognos gäller från 20 kl. 18 UTC till 21 kl. 24 UTC
Vind 8 kt från nord/nordväst i byarna ända upp till 20 kt
Sikt 10 km eller mer
Inga moln under 1 500 m eller inga cumulonimbus

TAF: HEMA 201700Z 2018/2124 33008G20KT CAVOK

Aktuella väderrapporter och prognoser från 4000 flygplatser (METAR- och TAF-rapporter).

De tillgängliga stationerna syns som gula och röda prickar på kartan.

För musen över prickarna för att se namnen på stationerna.

Klicka sedan för att få väderrapporter och prognoser.

För att ändra kartan: Klicka på de gröna knapparna med ett svart kors på för att zooma in; den gröna knappen med ett streck på för att zooma ut; eller på de gröna pilarna för angränsande kartor.


METAR-TAF: